createdAt,value
2018-05-14T00:01:56.101Z,10.70
2018-05-14T00:04:22.114Z,10.70
2018-05-14T00:06:48.938Z,10.70
2018-05-14T00:09:14.953Z,10.70
2018-05-14T00:11:40.950Z,10.70
2018-05-14T00:14:07.702Z,10.80
2018-05-14T00:16:34.439Z,10.90
2018-05-14T00:19:00.445Z,10.80
2018-05-14T00:21:26.450Z,10.90
2018-05-14T00:23:52.462Z,10.90
2018-05-14T00:26:19.213Z,10.90
2018-05-14T00:28:45.972Z,10.90
2018-05-14T00:31:12.723Z,10.90
2018-05-14T00:33:39.535Z,10.90
2018-05-14T00:36:05.539Z,10.80
2018-05-14T00:38:31.570Z,10.80
2018-05-14T00:40:57.572Z,10.90
2018-05-14T00:43:24.317Z,10.90
2018-05-14T00:45:50.325Z,10.90
2018-05-14T00:48:16.352Z,10.80
2018-05-14T00:50:42.350Z,10.80
2018-05-14T00:53:09.114Z,10.90
2018-05-14T00:55:35.121Z,10.90
2018-05-14T00:58:01.876Z,10.90
2018-05-14T01:00:28.720Z,10.90
2018-05-14T01:02:54.730Z,10.90
2018-05-14T01:05:20.747Z,10.90
2018-05-14T01:07:46.758Z,11.00
2018-05-14T01:10:12.769Z,11.00
2018-05-14T01:12:38.873Z,11.00
2018-05-14T01:15:04.888Z,10.90
2018-05-14T01:17:30.905Z,10.90
2018-05-14T01:19:56.906Z,10.90
2018-05-14T01:22:22.918Z,11.00
2018-05-14T01:24:55.070Z,10.90
2018-05-14T01:27:21.053Z,11.00
2018-05-14T01:29:47.065Z,11.00
2018-05-14T01:32:13.060Z,10.90
2018-05-14T01:34:39.058Z,11.00
2018-05-14T01:37:05.076Z,11.00
2018-05-14T01:39:31.085Z,11.10
2018-05-14T01:41:57.082Z,11.10
2018-05-14T01:44:23.836Z,11.00
2018-05-14T01:46:50.578Z,11.00
2018-05-14T01:49:16.590Z,11.00
2018-05-14T01:51:42.605Z,10.90
2018-05-14T01:54:08.613Z,11.00
2018-05-14T01:56:34.634Z,11.00
2018-05-14T01:59:01.383Z,11.00
2018-05-14T02:01:28.197Z,11.00
2018-05-14T02:03:54.244Z,11.00
2018-05-14T02:06:20.262Z,11.00
2018-05-14T02:08:46.282Z,10.90
2018-05-14T02:11:12.301Z,10.90
2018-05-14T02:13:38.313Z,11.00
2018-05-14T02:16:04.330Z,11.00
2018-05-14T02:18:30.457Z,11.00
2018-05-14T02:20:56.474Z,10.90
2018-05-14T02:23:22.485Z,10.90
2018-05-14T02:25:48.502Z,11.00
2018-05-14T02:28:15.253Z,11.00
2018-05-14T02:30:42.005Z,10.90
2018-05-14T02:33:08.770Z,11.00
2018-05-14T02:35:35.525Z,11.00
2018-05-14T02:38:01.562Z,11.00
2018-05-14T02:40:28.322Z,11.00
2018-05-14T02:42:54.410Z,11.00
2018-05-14T02:45:20.433Z,11.00
2018-05-14T02:47:46.449Z,11.00
2018-05-14T02:50:12.474Z,11.00
2018-05-14T02:52:38.514Z,11.00
2018-05-14T02:55:04.533Z,11.10
2018-05-14T02:57:30.549Z,11.10
2018-05-14T02:59:57.309Z,11.10
2018-05-14T03:02:24.072Z,11.10
2018-05-14T03:04:50.115Z,11.10
2018-05-14T03:07:16.878Z,11.20
2018-05-14T03:09:42.881Z,11.10
2018-05-14T03:12:09.005Z,11.20
2018-05-14T03:14:35.009Z,11.10
2018-05-14T03:17:01.037Z,11.20
2018-05-14T03:19:27.045Z,11.20
2018-05-14T03:21:53.800Z,11.20
2018-05-14T03:24:19.814Z,11.20
2018-05-14T03:26:45.829Z,11.20
2018-05-14T03:29:11.846Z,11.20
2018-05-14T03:31:37.866Z,11.20
2018-05-14T03:34:03.875Z,11.30
2018-05-14T03:36:30.636Z,11.30
2018-05-14T03:38:56.654Z,11.30
2018-05-14T03:41:23.446Z,11.30
2018-05-14T03:43:49.497Z,11.20
2018-05-14T03:46:15.573Z,11.30
2018-05-14T03:48:42.333Z,11.30
2018-05-14T03:51:09.110Z,11.30
2018-05-14T03:53:35.129Z,11.30
2018-05-14T03:56:01.911Z,11.30
2018-05-14T03:58:40.405Z,11.30
2018-05-14T04:01:14.210Z,11.30
2018-05-14T04:03:52.544Z,11.20
2018-05-14T04:06:31.061Z,11.30
2018-05-14T04:08:57.078Z,11.20
2018-05-14T04:11:23.090Z,11.20
2018-05-14T04:13:49.148Z,11.20
2018-05-14T04:16:15.153Z,11.20
2018-05-14T04:18:41.157Z,11.30
2018-05-14T04:21:07.913Z,11.20
2018-05-14T04:23:34.666Z,11.20
2018-05-14T04:26:01.429Z,11.20
2018-05-14T04:28:28.189Z,11.30
2018-05-14T04:30:54.193Z,11.20
2018-05-14T04:33:20.211Z,11.30
2018-05-14T04:35:46.230Z,11.30
2018-05-14T04:38:12.234Z,11.30
2018-05-14T04:40:38.260Z,11.30
2018-05-14T04:43:05.014Z,11.40
2018-05-14T04:45:31.770Z,11.40
2018-05-14T04:47:58.525Z,11.50
2018-05-14T04:50:24.532Z,11.50
2018-05-14T04:52:50.541Z,11.50
2018-05-14T04:55:16.574Z,11.50
2018-05-14T04:57:42.593Z,11.50
2018-05-14T05:00:08.606Z,11.50
2018-05-14T05:02:34.625Z,11.50
2018-05-14T05:05:01.370Z,11.50
2018-05-14T05:07:27.390Z,11.50
2018-05-14T05:09:53.418Z,11.40
2018-05-14T05:12:19.454Z,11.50
2018-05-14T05:14:45.465Z,11.50
2018-05-14T05:17:11.531Z,11.50
2018-05-14T05:19:37.506Z,11.50
2018-05-14T05:22:04.270Z,11.60
2018-05-14T05:24:30.273Z,11.60
2018-05-14T05:26:56.283Z,11.50
2018-05-14T05:29:22.307Z,11.40
2018-05-14T05:31:48.327Z,11.40
2018-05-14T05:34:14.346Z,11.40
2018-05-14T05:36:40.366Z,11.40
2018-05-14T05:39:07.126Z,11.50
2018-05-14T05:41:33.870Z,11.40
2018-05-14T05:44:00.622Z,11.50
2018-05-14T05:46:27.383Z,11.50
2018-05-14T05:48:54.152Z,11.50
2018-05-14T05:51:20.166Z,11.40
2018-05-14T05:53:46.929Z,11.40
2018-05-14T05:56:13.685Z,11.40
2018-05-14T05:58:39.692Z,11.40
2018-05-14T06:01:05.817Z,11.40
2018-05-14T06:03:31.832Z,11.40
2018-05-14T06:05:57.851Z,11.40
2018-05-14T06:08:23.853Z,11.60
2018-05-14T06:10:50.655Z,11.70
2018-05-14T06:13:16.657Z,11.70
2018-05-14T06:15:42.684Z,11.70
2018-05-14T06:18:09.440Z,11.60
2018-05-14T06:20:36.177Z,11.60
2018-05-14T06:23:02.284Z,11.60
2018-05-14T06:25:28.283Z,11.70
2018-05-14T06:27:54.324Z,11.70
2018-05-14T06:30:20.310Z,11.80
2018-05-14T06:32:46.321Z,11.70
2018-05-14T06:35:12.322Z,11.60
2018-05-14T06:37:38.327Z,11.60
2018-05-14T06:40:04.329Z,11.60
2018-05-14T06:42:30.356Z,11.60
2018-05-14T06:44:56.370Z,11.60
2018-05-14T06:47:22.390Z,11.70
2018-05-14T06:49:48.433Z,11.70
2018-05-14T06:52:15.168Z,11.80
2018-05-14T06:54:41.936Z,11.80
2018-05-14T06:57:07.949Z,11.80
2018-05-14T06:59:34.711Z,11.90
2018-05-14T07:02:01.461Z,11.90
2018-05-14T07:04:28.225Z,11.90
2018-05-14T07:06:54.982Z,11.90
2018-05-14T07:09:21.791Z,11.90
2018-05-14T07:11:47.814Z,11.90
2018-05-14T07:14:13.833Z,11.80
2018-05-14T07:16:39.840Z,11.80
2018-05-14T07:19:06.593Z,11.90
2018-05-14T07:21:33.342Z,12.00
2018-05-14T07:24:00.114Z,12.00
2018-05-14T07:26:26.297Z,12.00
2018-05-14T07:28:52.337Z,12.20
2018-05-14T07:31:18.343Z,12.30
2018-05-14T07:33:44.350Z,12.30
2018-05-14T07:36:11.190Z,12.40
2018-05-14T07:38:37.134Z,12.40
2018-05-14T07:41:03.893Z,12.50
2018-05-14T07:43:29.922Z,12.40
2018-05-14T07:45:56.677Z,12.30
2018-05-14T07:48:23.423Z,12.40
2018-05-14T07:50:50.189Z,12.40
2018-05-14T07:53:16.198Z,12.40
2018-05-14T07:55:42.957Z,12.50
2018-05-14T07:58:09.715Z,12.50
2018-05-14T08:00:36.467Z,12.50
2018-05-14T08:03:03.217Z,12.30
2018-05-14T08:05:30.025Z,12.30
2018-05-14T08:07:55.997Z,12.30
2018-05-14T08:10:22.006Z,12.30
2018-05-14T08:12:48.005Z,12.30
2018-05-14T08:15:14.005Z,12.40
2018-05-14T08:17:40.026Z,12.40
2018-05-14T08:20:06.043Z,12.50
2018-05-14T08:22:32.040Z,12.60
2018-05-14T08:24:58.795Z,12.50
2018-05-14T08:27:24.788Z,12.50
2018-05-14T08:29:50.907Z,12.60
2018-05-14T08:32:16.910Z,12.70
2018-05-14T08:34:42.933Z,12.90
2018-05-14T08:37:09.746Z,13.40
2018-05-14T08:39:35.696Z,13.40
2018-05-14T08:42:01.699Z,13.60
2018-05-14T08:44:27.737Z,13.90
2018-05-14T08:46:53.734Z,14.30
2018-05-14T08:49:19.752Z,14.60
2018-05-14T08:51:46.489Z,14.50
2018-05-14T08:54:12.543Z,14.50
2018-05-14T08:56:38.499Z,14.50
2018-05-14T08:59:04.563Z,14.50
2018-05-14T09:01:30.568Z,14.40
2018-05-14T09:03:56.557Z,14.40
2018-05-14T09:06:22.557Z,14.30
2018-05-14T09:08:48.708Z,14.10
2018-05-14T09:11:15.312Z,14.20
2018-05-14T09:13:41.304Z,14.20
2018-05-14T09:16:07.319Z,14.10
2018-05-14T09:18:33.308Z,14.10
2018-05-14T09:21:00.074Z,14.00
2018-05-14T09:23:26.074Z,14.00
2018-05-14T09:25:52.074Z,14.10
2018-05-14T09:28:18.067Z,14.10
2018-05-14T09:30:44.069Z,14.20
2018-05-14T09:33:10.065Z,14.20
2018-05-14T09:35:36.106Z,14.30
2018-05-14T09:38:02.110Z,14.40
2018-05-14T09:43:00.790Z,14.50
2018-05-14T09:45:26.785Z,14.50
2018-05-14T09:47:52.781Z,14.90
2018-05-14T09:50:18.789Z,15.30
2018-05-14T09:52:44.781Z,15.10
2018-05-14T09:55:10.791Z,15.20
2018-05-14T09:57:36.785Z,15.10
2018-05-14T10:00:02.789Z,15.00
2018-05-14T10:02:28.791Z,15.30
2018-05-14T10:04:54.806Z,15.60
2018-05-14T10:07:20.835Z,15.70
2018-05-14T10:09:46.848Z,15.30
2018-05-14T10:12:12.869Z,15.20
2018-05-14T10:14:38.870Z,14.80
2018-05-14T10:17:04.872Z,14.40
2018-05-14T10:19:30.917Z,14.40
2018-05-14T10:21:56.929Z,14.40
2018-05-14T10:24:22.987Z,14.50
2018-05-14T10:26:49.000Z,14.40
2018-05-14T10:29:15.008Z,14.60
2018-05-14T10:31:41.761Z,14.20
2018-05-14T10:34:08.590Z,14.10
2018-05-14T10:36:34.651Z,14.10
2018-05-14T10:39:01.449Z,13.70
2018-05-14T10:41:27.466Z,13.70
2018-05-14T10:43:53.563Z,13.50
2018-05-14T10:46:20.320Z,13.60
2018-05-14T10:48:47.065Z,13.40
2018-05-14T10:51:13.177Z,13.40
2018-05-14T10:53:39.245Z,13.50
2018-05-14T10:56:06.012Z,13.60
2018-05-14T10:58:39.000Z,13.60
2018-05-14T11:01:04.944Z,13.60
2018-05-14T11:03:31.065Z,13.70
2018-05-14T11:05:57.845Z,13.90
2018-05-14T11:08:38.961Z,13.80
2018-05-14T11:11:04.985Z,14.00
2018-05-14T11:13:31.265Z,14.00
2018-05-14T11:15:57.285Z,13.90
2018-05-14T11:18:23.461Z,13.80
2018-05-14T11:20:50.306Z,13.90
2018-05-14T11:23:16.454Z,13.90
2018-05-14T11:25:43.229Z,14.20
2018-05-14T11:28:09.253Z,14.20
2018-05-14T11:30:36.153Z,14.60
2018-05-14T11:33:02.164Z,14.60
2018-05-14T11:35:28.264Z,14.90
2018-05-14T11:37:54.274Z,14.90
2018-05-14T11:40:20.291Z,14.80
2018-05-14T11:42:46.314Z,14.60
2018-05-14T11:45:12.319Z,14.40
2018-05-14T11:47:39.075Z,14.50
2018-05-14T11:50:05.877Z,14.40
2018-05-14T11:52:31.885Z,14.40
2018-05-14T11:54:57.895Z,14.40
2018-05-14T11:57:24.678Z,14.40
2018-05-14T11:59:50.699Z,14.40
2018-05-14T12:02:16.750Z,14.20
2018-05-14T12:04:42.767Z,14.10
2018-05-14T12:07:08.785Z,14.00
2018-05-14T12:09:35.530Z,13.90
2018-05-14T12:12:01.541Z,13.80
2018-05-14T12:14:27.555Z,13.80
2018-05-14T12:16:53.583Z,13.80
2018-05-14T12:19:19.609Z,13.90
2018-05-14T12:21:45.624Z,13.80
2018-05-14T12:24:12.366Z,13.90
2018-05-14T12:26:39.112Z,14.10
2018-05-14T12:29:05.861Z,14.20
2018-05-14T12:31:31.866Z,14.20
2018-05-14T12:33:57.952Z,14.30
2018-05-14T12:36:24.853Z,14.10
2018-05-14T12:38:50.867Z,14.10
2018-05-14T12:41:16.876Z,14.20
2018-05-14T12:43:43.631Z,14.20
2018-05-14T12:46:10.480Z,14.20
2018-05-14T12:48:36.418Z,14.20
2018-05-14T12:51:03.182Z,14.30
2018-05-14T12:53:29.202Z,14.20
2018-05-14T12:55:55.960Z,14.20
2018-05-14T12:58:22.762Z,14.30
2018-05-14T13:00:48.818Z,14.30
2018-05-14T13:03:14.826Z,14.30
2018-05-14T13:05:40.833Z,14.20
2018-05-14T13:08:06.843Z,14.20
2018-05-14T13:10:33.586Z,14.00
2018-05-14T13:12:59.678Z,14.00
2018-05-14T13:15:25.616Z,13.90
2018-05-14T13:17:51.630Z,13.70
2018-05-14T13:20:17.634Z,13.80
2018-05-14T13:22:44.378Z,13.80
2018-05-14T13:25:10.381Z,13.80
2018-05-14T13:27:36.404Z,13.90
2018-05-14T13:30:02.419Z,13.90
2018-05-14T13:32:28.439Z,13.90
2018-05-14T13:34:55.234Z,13.80
2018-05-14T13:37:21.263Z,13.70
2018-05-14T13:39:47.329Z,13.70
2018-05-14T13:42:13.351Z,13.70
2018-05-14T13:44:39.412Z,13.80
2018-05-14T13:47:05.405Z,13.70
2018-05-14T13:49:31.413Z,13.80
2018-05-14T13:51:57.417Z,13.90
2018-05-14T13:54:23.461Z,13.90
2018-05-14T13:56:50.204Z,14.20
2018-05-14T13:59:16.213Z,14.20
2018-05-14T14:01:42.205Z,14.10
2018-05-14T14:04:08.947Z,14.10
2018-05-14T14:06:35.821Z,14.10
2018-05-14T14:09:01.832Z,14.10
2018-05-14T14:11:28.666Z,14.00
2018-05-14T14:13:55.342Z,14.10
2018-05-14T14:16:22.085Z,14.10
2018-05-14T14:18:48.834Z,14.20
2018-05-14T14:21:15.576Z,14.20
2018-05-14T14:23:41.802Z,14.20
2018-05-14T14:26:07.614Z,14.20
2018-05-14T14:28:33.629Z,14.30
2018-05-14T14:30:59.670Z,14.20
2018-05-14T14:33:32.839Z,14.30
2018-05-14T14:35:59.642Z,14.30
2018-05-14T14:38:25.651Z,14.20
2018-05-14T14:40:51.663Z,14.30
2018-05-14T14:43:18.421Z,14.50
2018-05-14T14:45:45.153Z,14.40
2018-05-14T14:48:11.175Z,14.40
2018-05-14T14:50:37.174Z,14.40
2018-05-14T14:53:03.186Z,14.40
2018-05-14T14:55:29.921Z,14.10
2018-05-14T14:57:56.680Z,14.10
2018-05-14T15:00:23.423Z,14.00
2018-05-14T15:02:49.535Z,14.00
2018-05-14T15:05:15.553Z,14.10
2018-05-14T15:07:41.580Z,14.10
2018-05-14T15:10:07.617Z,14.10
2018-05-14T15:12:33.618Z,14.10
2018-05-14T15:15:00.369Z,14.10
2018-05-14T15:17:26.387Z,14.10
2018-05-14T15:19:53.149Z,14.10
2018-05-14T15:22:19.938Z,14.10
2018-05-14T15:24:46.002Z,14.10
2018-05-14T15:27:12.055Z,14.10
2018-05-14T15:29:38.090Z,14.10
2018-05-14T15:32:04.100Z,14.20
2018-05-14T15:34:30.107Z,14.20
2018-05-14T15:36:56.118Z,14.20
2018-05-14T15:39:22.870Z,14.20
2018-05-14T15:41:49.631Z,14.20
2018-05-14T15:44:16.389Z,14.10
2018-05-14T15:46:42.478Z,14.10
2018-05-14T15:49:08.494Z,14.10
2018-05-14T15:51:34.500Z,14.00
2018-05-14T15:54:00.514Z,14.00
2018-05-14T15:56:27.327Z,13.90
2018-05-14T15:58:54.039Z,13.90
2018-05-14T16:01:20.045Z,13.90
2018-05-14T16:03:46.165Z,13.80
2018-05-14T16:06:12.173Z,13.60
2018-05-14T16:08:38.183Z,13.50
2018-05-14T16:11:04.202Z,13.60
2018-05-14T16:13:30.946Z,13.40
2018-05-14T16:15:56.962Z,13.40
2018-05-14T16:18:22.965Z,13.40
2018-05-14T16:20:49.082Z,13.40
2018-05-14T16:23:14.986Z,13.40
2018-05-14T16:25:41.000Z,13.50
2018-05-14T16:28:07.020Z,13.50
2018-05-14T16:30:33.035Z,13.40
2018-05-14T16:32:59.039Z,13.40
2018-05-14T16:35:25.789Z,13.40
2018-05-14T16:37:52.529Z,13.50
2018-05-14T16:40:18.643Z,13.40
2018-05-14T16:42:44.649Z,13.50
2018-05-14T16:45:10.666Z,13.40
2018-05-14T16:47:36.680Z,13.50
2018-05-14T16:50:02.760Z,13.50
2018-05-14T16:52:28.687Z,13.60
2018-05-14T16:54:54.759Z,13.60
2018-05-14T16:57:20.758Z,13.60
2018-05-14T16:59:46.769Z,13.70
2018-05-14T17:02:13.524Z,13.70
2018-05-14T17:04:46.694Z,13.70
2018-05-14T17:07:12.689Z,13.70
2018-05-14T17:09:38.698Z,13.80
2018-05-14T17:12:05.473Z,13.80
2018-05-14T17:14:31.485Z,13.80
2018-05-14T17:16:58.230Z,13.80
2018-05-14T17:19:25.064Z,13.90
2018-05-14T17:21:51.081Z,13.90
2018-05-14T17:24:17.111Z,13.90
2018-05-14T17:26:43.135Z,13.90
2018-05-14T17:29:09.142Z,14.00
2018-05-14T17:31:35.966Z,14.00
2018-05-14T17:34:01.987Z,14.00
2018-05-14T17:36:28.013Z,14.00
2018-05-14T17:38:54.030Z,14.00
2018-05-14T17:41:20.053Z,14.00
2018-05-14T17:43:46.070Z,13.90
2018-05-14T17:46:12.898Z,13.90
2018-05-14T17:48:38.921Z,13.90
2018-05-14T17:51:04.937Z,13.90
2018-05-14T17:53:30.954Z,13.90
2018-05-14T17:55:56.970Z,13.90
2018-05-14T17:58:23.731Z,13.90
2018-05-14T18:00:50.504Z,13.90
2018-05-14T18:03:16.579Z,13.80
2018-05-14T18:05:42.597Z,13.90
2018-05-14T18:08:08.591Z,13.90
2018-05-14T18:10:35.423Z,13.80
2018-05-14T18:13:01.355Z,13.80
2018-05-14T18:15:27.422Z,13.80
2018-05-14T18:17:53.574Z,13.80
2018-05-14T18:20:24.641Z,13.80
2018-05-14T18:22:50.722Z,13.80
2018-05-14T18:25:22.954Z,13.80
2018-05-14T18:27:55.347Z,13.80
2018-05-14T18:30:27.893Z,13.80
2018-05-14T18:33:00.714Z,13.80
2018-05-14T18:35:26.737Z,13.80
2018-05-14T18:37:53.487Z,13.80
2018-05-14T18:40:20.220Z,13.70
2018-05-14T18:42:46.219Z,13.70
2018-05-14T18:45:12.314Z,13.70
2018-05-14T18:47:39.057Z,13.80
2018-05-14T18:50:05.809Z,13.80
2018-05-14T18:52:32.571Z,13.80
2018-05-14T18:54:59.322Z,13.80
2018-05-14T18:57:26.074Z,13.70
2018-05-14T18:59:52.831Z,13.70
2018-05-14T19:02:19.586Z,13.70
2018-05-14T19:04:46.329Z,13.70
2018-05-14T19:07:13.083Z,13.70
2018-05-14T19:09:39.840Z,13.70
2018-05-14T19:12:06.630Z,13.70
2018-05-14T19:14:32.690Z,13.60
2018-05-14T19:17:05.001Z,13.60
2018-05-14T19:19:30.996Z,13.60
2018-05-14T19:21:57.003Z,13.60
2018-05-14T19:24:23.071Z,13.60
2018-05-14T19:26:49.099Z,13.60
2018-05-14T19:29:21.389Z,13.60
2018-05-14T19:31:47.329Z,13.70
2018-05-14T19:34:19.305Z,13.70
2018-05-14T19:36:45.324Z,13.70
2018-05-14T19:39:11.337Z,13.70
2018-05-14T19:41:37.407Z,13.70
2018-05-14T19:44:04.112Z,13.70
2018-05-14T19:46:30.895Z,13.70
2018-05-14T19:48:56.909Z,13.70
2018-05-14T19:51:22.926Z,13.70
2018-05-14T19:53:48.937Z,13.70
2018-05-14T19:56:14.966Z,13.70
2018-05-14T19:58:40.977Z,13.70
2018-05-14T20:01:06.992Z,13.70
2018-05-14T20:03:33.905Z,13.70
2018-05-14T20:05:59.818Z,13.70
2018-05-14T20:08:25.842Z,13.70
2018-05-14T20:10:51.925Z,13.70
2018-05-14T20:13:17.938Z,13.60
2018-05-14T20:15:43.989Z,13.60
2018-05-14T20:18:10.060Z,13.60
2018-05-14T20:20:36.082Z,13.60
2018-05-14T20:23:02.853Z,13.60
2018-05-14T20:25:28.866Z,13.60
2018-05-14T20:27:54.892Z,13.60
2018-05-14T20:30:20.909Z,13.60
2018-05-14T20:32:46.928Z,13.60
2018-05-14T20:35:12.961Z,13.60
2018-05-14T20:37:38.978Z,13.60
2018-05-14T20:40:05.006Z,13.60
2018-05-14T20:42:31.053Z,13.50
2018-05-14T20:44:57.071Z,13.60
2018-05-14T20:47:23.834Z,13.60
2018-05-14T20:49:49.861Z,13.60
2018-05-14T20:52:16.727Z,13.60
2018-05-14T20:54:42.674Z,13.60
2018-05-14T20:57:08.739Z,13.60
2018-05-14T20:59:34.759Z,13.60
2018-05-14T21:02:00.867Z,13.60
2018-05-14T21:04:26.931Z,13.60
2018-05-14T21:06:52.953Z,13.60
2018-05-14T21:09:18.984Z,13.40
2018-05-14T21:11:45.002Z,13.40
2018-05-14T21:14:11.781Z,13.20
2018-05-14T21:16:37.802Z,13.20
2018-05-14T21:19:03.900Z,13.10
2018-05-14T21:21:29.914Z,13.00
2018-05-14T21:23:55.929Z,13.00
2018-05-14T21:26:21.954Z,13.00
2018-05-14T21:28:47.978Z,12.90
2018-05-14T21:31:14.792Z,12.90
2018-05-14T21:33:40.759Z,12.80
2018-05-14T21:36:07.519Z,12.70
2018-05-14T21:38:34.288Z,12.70
2018-05-14T21:41:00.302Z,12.70
2018-05-14T21:43:27.084Z,12.70
2018-05-14T21:45:53.098Z,12.70
2018-05-14T21:48:19.891Z,12.70
2018-05-14T21:50:45.988Z,12.70
2018-05-14T21:53:12.016Z,12.70
2018-05-14T21:55:38.788Z,12.80
2018-05-14T21:58:04.802Z,12.70
2018-05-14T22:00:31.578Z,12.80
2018-05-14T22:02:57.585Z,12.80
2018-05-14T22:05:23.605Z,12.80
2018-05-14T22:07:49.728Z,12.80
2018-05-14T22:10:15.757Z,12.80
2018-05-14T22:12:41.772Z,12.80
2018-05-14T22:15:07.802Z,12.80
2018-05-14T22:17:33.818Z,12.70
2018-05-14T22:20:00.583Z,12.70
2018-05-14T22:22:26.602Z,12.60
2018-05-14T22:24:53.363Z,12.50
2018-05-14T22:27:20.123Z,12.50
2018-05-14T22:29:46.147Z,12.50
2018-05-14T22:32:12.899Z,12.50
2018-05-14T22:34:39.656Z,12.50
2018-05-14T22:37:06.404Z,12.50
2018-05-14T22:39:33.165Z,12.40
2018-05-14T22:41:59.916Z,12.40
2018-05-14T22:44:26.665Z,12.40
2018-05-14T22:46:53.415Z,12.40
2018-05-14T22:49:20.178Z,12.40
2018-05-14T22:51:46.186Z,12.40
2018-05-14T22:54:13.021Z,12.40
2018-05-14T22:56:39.053Z,12.50
2018-05-14T22:59:05.071Z,12.60
2018-05-14T23:01:31.100Z,12.60
2018-05-14T23:03:57.106Z,12.60
2018-05-14T23:06:23.129Z,12.60
2018-05-14T23:08:49.884Z,12.60
2018-05-14T23:11:16.658Z,12.60
2018-05-14T23:13:42.669Z,12.60
2018-05-14T23:16:09.435Z,12.70
2018-05-14T23:18:35.440Z,12.70
2018-05-14T23:21:01.468Z,12.70
2018-05-14T23:23:27.485Z,12.70
2018-05-14T23:25:53.530Z,12.70
2018-05-14T23:28:19.540Z,12.70
2018-05-14T23:30:45.573Z,12.70
2018-05-14T23:33:11.588Z,12.70
2018-05-14T23:35:37.618Z,12.70
2018-05-14T23:38:03.629Z,12.70
2018-05-14T23:40:29.657Z,12.70
2018-05-14T23:42:55.670Z,12.70
2018-05-14T23:45:21.695Z,12.70
2018-05-14T23:47:47.743Z,12.60
2018-05-14T23:50:13.775Z,12.60
2018-05-14T23:52:39.785Z,12.50
2018-05-14T23:55:05.808Z,12.50
2018-05-14T23:57:31.829Z,12.50
2018-05-14T23:59:58.614Z,12.50
